createdAt,value
2018-04-22T00:01:37.270Z,99.20
2018-04-22T00:07:41.716Z,99.20
2018-04-22T00:13:46.165Z,99.70
2018-04-22T00:19:50.550Z,99.90
2018-04-22T00:25:54.925Z,99.90
2018-04-22T00:31:59.371Z,99.90
2018-04-22T00:38:04.501Z,99.90
2018-04-22T00:44:08.891Z,99.90
2018-04-22T00:50:13.263Z,99.90
2018-04-22T00:56:17.622Z,99.90
2018-04-22T01:02:21.987Z,99.90
2018-04-22T01:08:26.356Z,99.90
2018-04-22T01:14:30.732Z,99.90
2018-04-22T01:20:35.417Z,99.90
2018-04-22T01:26:40.215Z,99.90
2018-04-22T01:32:44.679Z,99.90
2018-04-22T01:38:49.051Z,99.90
2018-04-22T01:44:53.852Z,99.90
2018-04-22T01:50:58.216Z,99.90
2018-04-22T01:57:02.582Z,99.90
2018-04-22T02:03:07.708Z,99.90
2018-04-22T02:09:13.513Z,99.90
2018-04-22T02:15:17.949Z,99.90
2018-04-22T02:21:23.136Z,99.90
2018-04-22T02:27:28.271Z,99.90
2018-04-22T02:33:32.642Z,99.90
2018-04-22T02:39:36.996Z,99.90
2018-04-22T02:45:41.388Z,99.90
2018-04-22T02:51:46.106Z,99.90
2018-04-22T02:57:50.474Z,99.90
2018-04-22T03:03:54.848Z,99.90
2018-04-22T03:09:59.195Z,99.90
2018-04-22T03:16:03.551Z,99.90
2018-04-22T03:22:07.913Z,99.90
2018-04-22T03:28:13.044Z,99.90
2018-04-22T03:34:17.382Z,99.90
2018-04-22T03:40:22.494Z,99.90
2018-04-22T03:46:26.870Z,99.90
2018-04-22T03:52:31.214Z,99.90
2018-04-22T03:58:36.382Z,99.90
2018-04-22T04:04:41.609Z,99.90
2018-04-22T04:10:46.751Z,99.90
2018-04-22T04:16:52.061Z,99.90
2018-04-22T04:22:56.476Z,99.90
2018-04-22T04:29:01.608Z,99.90
2018-04-22T04:35:06.904Z,99.90
2018-04-22T04:41:11.255Z,99.90
2018-04-22T04:47:15.604Z,99.90
2018-04-22T04:53:19.996Z,99.90
2018-04-22T04:59:25.208Z,99.90
2018-04-22T05:05:29.669Z,99.90
2018-04-22T05:11:34.799Z,99.90
2018-04-22T05:17:39.731Z,99.90
2018-04-22T05:23:44.129Z,99.90
2018-04-22T05:29:48.499Z,99.90
2018-04-22T05:35:52.872Z,99.90
2018-04-22T05:41:57.222Z,99.90
2018-04-22T05:48:02.336Z,99.90
2018-04-22T05:54:06.859Z,99.90
2018-04-22T06:00:11.441Z,99.90
2018-04-22T06:06:15.879Z,99.90
2018-04-22T06:12:21.027Z,99.90
2018-04-22T06:18:25.372Z,99.90
2018-04-22T06:24:29.747Z,99.90
2018-04-22T06:30:34.122Z,99.90
2018-04-22T06:36:38.497Z,99.90
2018-04-22T06:42:42.901Z,99.90
2018-04-22T06:48:47.332Z,99.90
2018-04-22T06:54:51.687Z,99.90
2018-04-22T07:00:56.822Z,95.20
2018-04-22T07:07:01.210Z,95.10
2018-04-22T07:13:05.605Z,93.40
2018-04-22T07:19:10.336Z,93.50
2018-04-22T07:25:14.746Z,96.70
2018-04-22T07:31:19.113Z,93.80
2018-04-22T07:37:23.639Z,93.20
2018-04-22T07:43:28.762Z,93.70
2018-04-22T07:49:33.148Z,93.60
2018-04-22T07:55:37.599Z,94.00
2018-04-22T08:01:42.148Z,93.00
2018-04-22T08:07:47.387Z,90.00
2018-04-22T08:13:51.883Z,90.00
2018-04-22T08:19:56.833Z,90.00
2018-04-22T08:26:01.221Z,90.00
2018-04-22T08:32:05.698Z,89.20
2018-04-22T08:38:10.476Z,86.50
2018-04-22T08:44:15.027Z,86.60
2018-04-22T08:50:19.415Z,85.40
2018-04-22T08:56:23.808Z,84.30
2018-04-22T09:02:28.199Z,85.90
2018-04-22T09:08:32.584Z,87.10
2018-04-22T09:14:36.982Z,83.70
2018-04-22T09:20:41.373Z,85.20
2018-04-22T09:26:45.952Z,86.90
2018-04-22T09:32:51.086Z,92.00
2018-04-22T09:38:55.543Z,91.60
2018-04-22T09:44:59.911Z,92.00
2018-04-22T09:51:05.052Z,86.00
2018-04-22T09:57:09.431Z,86.00
2018-04-22T10:03:14.093Z,84.00
2018-04-22T10:09:19.184Z,80.50
2018-04-22T10:15:23.549Z,78.60
2018-04-22T10:21:27.919Z,80.70
2018-04-22T10:27:33.141Z,75.80
2018-04-22T10:33:37.503Z,75.70
2018-04-22T10:39:41.906Z,75.30
2018-04-22T10:45:46.680Z,72.40
2018-04-22T10:51:51.046Z,68.30
2018-04-22T10:57:55.477Z,64.80
2018-04-22T11:03:59.909Z,62.80
2018-04-22T11:10:04.310Z,58.60
2018-04-22T11:16:08.698Z,57.30
2018-04-22T11:22:14.051Z,52.90
2018-04-22T11:28:18.603Z,52.90
2018-04-22T11:34:23.766Z,48.80
2018-04-22T11:40:28.191Z,48.80
2018-04-22T11:46:32.579Z,47.70
2018-04-22T11:52:36.951Z,46.60
2018-04-22T11:58:41.468Z,45.00
2018-04-22T12:04:46.348Z,44.30
2018-04-22T12:10:50.718Z,43.00
2018-04-22T12:16:55.228Z,41.20
2018-04-22T12:22:59.651Z,41.90
2018-04-22T12:29:04.018Z,42.40
2018-04-22T12:35:08.559Z,42.10
2018-04-22T12:41:13.107Z,40.20
2018-04-22T12:47:17.502Z,40.10
2018-04-22T12:53:22.666Z,42.70
2018-04-22T12:59:27.122Z,42.70
2018-04-22T13:05:31.599Z,40.60
2018-04-22T13:11:35.958Z,39.90
2018-04-22T13:17:40.335Z,39.60
2018-04-22T13:23:44.720Z,40.50
2018-04-22T13:29:49.314Z,38.10
2018-04-22T13:35:53.737Z,37.20
2018-04-22T13:41:58.970Z,36.60
2018-04-22T13:48:03.418Z,36.50
2018-04-22T13:54:08.546Z,36.00
2018-04-22T14:00:13.115Z,36.00
2018-04-22T14:06:18.025Z,35.00
2018-04-22T14:12:22.391Z,33.10
2018-04-22T14:18:26.901Z,31.20
2018-04-22T14:24:31.275Z,29.60
2018-04-22T14:30:35.647Z,29.80
2018-04-22T14:36:40.072Z,25.50
2018-04-22T14:42:44.465Z,29.20
2018-04-22T14:49:05.765Z,33.70
2018-04-22T14:55:10.157Z,34.50
2018-04-22T15:21:52.251Z,40.80
2018-04-22T15:27:56.607Z,43.50
2018-04-22T15:34:00.959Z,44.60
2018-04-22T15:40:05.345Z,48.40
2018-04-22T15:46:09.689Z,49.20
2018-04-22T15:52:14.055Z,50.30
2018-04-22T15:58:18.429Z,52.30
2018-04-22T16:04:23.530Z,59.50
2018-04-22T16:10:27.914Z,59.60
2018-04-22T16:16:32.255Z,58.90
2018-04-22T16:22:37.373Z,73.70
2018-04-22T16:28:41.753Z,73.60
2018-04-22T16:34:46.919Z,77.40
2018-04-22T16:40:52.083Z,76.20
2018-04-22T16:46:57.220Z,80.40
2018-04-22T16:53:02.358Z,82.10
2018-04-22T16:59:06.705Z,82.00
2018-04-22T17:05:11.045Z,76.70
2018-04-22T17:11:15.390Z,71.10
2018-04-22T17:17:19.731Z,87.10
2018-04-22T17:23:24.078Z,96.00
2018-04-22T17:29:28.429Z,99.90
2018-04-22T17:35:32.783Z,99.90
2018-04-22T17:41:37.126Z,99.90
2018-04-22T17:47:42.242Z,99.90
2018-04-22T17:53:46.586Z,99.90
2018-04-22T17:59:50.957Z,99.90
2018-04-22T18:05:55.287Z,99.90
2018-04-22T18:11:59.625Z,99.90
2018-04-22T18:18:03.947Z,99.90
2018-04-22T18:24:08.289Z,99.90
2018-04-22T18:30:12.665Z,99.90
2018-04-22T18:36:17.019Z,99.90
2018-04-22T18:42:21.347Z,99.90
2018-04-22T18:48:25.677Z,99.90
2018-04-22T18:54:30.020Z,99.90
2018-04-22T19:00:34.376Z,99.90
2018-04-22T19:06:39.484Z,99.90
2018-04-22T19:12:43.845Z,99.90
2018-04-22T19:18:48.208Z,99.90
2018-04-22T19:24:52.540Z,99.90
2018-04-22T19:30:56.887Z,99.90
2018-04-22T19:37:01.237Z,99.90
2018-04-22T19:43:06.350Z,99.90
2018-04-22T19:49:10.702Z,99.90
2018-04-22T19:55:15.041Z,99.90
2018-04-22T20:01:19.436Z,99.90
2018-04-22T20:07:23.783Z,99.90
2018-04-22T20:13:28.128Z,99.90
2018-04-22T20:19:32.473Z,99.90
2018-04-22T20:25:36.819Z,99.90
2018-04-22T20:31:41.199Z,99.90
2018-04-22T20:37:45.535Z,99.90
2018-04-22T20:43:49.905Z,99.90
2018-04-22T20:49:55.028Z,99.90
2018-04-22T20:55:59.393Z,99.90
2018-04-22T21:02:03.753Z,99.90
2018-04-22T21:08:08.880Z,99.90
2018-04-22T21:14:13.223Z,99.90
2018-04-22T21:20:17.568Z,99.90
2018-04-22T21:26:21.934Z,99.90
2018-04-22T21:32:27.041Z,99.90
2018-04-22T21:38:31.381Z,99.90
2018-04-22T21:44:35.727Z,99.90
2018-04-22T21:50:40.083Z,99.90
2018-04-22T21:56:44.473Z,99.90
2018-04-22T22:02:48.858Z,99.90
2018-04-22T22:08:53.211Z,99.90
2018-04-22T22:14:57.576Z,99.90
2018-04-22T22:21:02.693Z,99.90
2018-04-22T22:27:07.040Z,99.90
2018-04-22T22:33:12.008Z,99.90
2018-04-22T22:39:16.358Z,99.90
2018-04-22T22:45:20.724Z,99.90
2018-04-22T22:51:25.855Z,99.90
2018-04-22T22:57:30.218Z,99.90
2018-04-22T23:03:35.344Z,99.90
2018-04-22T23:09:39.681Z,99.90
2018-04-22T23:15:44.032Z,99.90
2018-04-22T23:21:48.400Z,99.90
2018-04-22T23:27:53.515Z,99.90
2018-04-22T23:33:57.869Z,99.90
2018-04-22T23:40:02.226Z,99.90
2018-04-22T23:46:06.578Z,99.90
2018-04-22T23:52:11.689Z,99.90
2018-04-22T23:58:16.043Z,99.90
